Time;durP1;ratioP1;P1;durP2;ratioP2;P2;SDS_P1;SDS_P2;PMS_P1;PMS_P2;Temp;Humidity;BMP_temperature;BMP_pressure;BME280_temperature;BME280_humidity;BME280_pressure;Samples;Min_cycle;Max_cycle;Signal;HPM_P1;HPM_P2
2023/04/05 00:00:09;;;;;;;1.42;1.20;;;;;;;21.87;19.69;101338.00;4533917;28;20040;-57
2023/04/05 00:02:23;;;;;;;1.50;1.33;;;;;;;21.90;19.33;101354.50;4535092;28;20592;-58
2023/04/05 00:04:33;;;;;;;1.30;1.20;;;;;;;21.92;18.95;101352.13;4531753;28;20052;-57
2023/04/05 00:06:45;;;;;;;1.40;1.30;;;;;;;21.94;19.49;101366.13;4531358;28;20285;-57
2023/04/05 00:09:03;;;;;;;1.70;1.50;;;;;;;21.93;19.37;101359.53;4530136;28;20029;-57
2023/04/05 00:11:13;;;;;;;1.52;1.35;;;;;;;21.92;19.50;101357.88;4531087;28;20075;-59
2023/04/05 00:13:24;;;;;;;1.30;1.20;;;;;;;21.93;19.17;101352.94;4530557;28;20143;-57
2023/04/05 00:15:34;;;;;;;1.30;1.20;;;;;;;21.92;18.89;101351.28;4532175;28;20124;-58
2023/04/05 00:17:46;;;;;;;1.33;1.23;;;;;;;21.90;19.25;101345.91;4531747;28;20033;-57
2023/04/05 00:19:56;;;;;;;1.33;1.20;;;;;;;21.89;18.96;101349.13;4533063;28;20032;-58
2023/04/05 00:22:09;;;;;;;1.77;1.40;;;;;;;21.88;19.17;101351.16;4515585;28;20350;-57
2023/04/05 00:24:20;;;;;;;1.20;1.10;;;;;;;21.86;19.31;101342.06;4530295;28;20038;-59
2023/04/05 00:26:31;;;;;;;1.50;1.40;;;;;;;21.88;19.29;101345.41;4532883;28;20757;-57
2023/04/05 00:28:42;;;;;;;1.45;1.35;;;;;;;21.88;19.23;101338.84;4516875;28;20155;-58
2023/04/05 00:30:52;;;;;;;1.50;1.35;;;;;;;21.85;19.11;101337.50;4513220;28;20056;-58
2023/04/05 00:33:03;;;;;;;1.40;1.30;;;;;;;21.74;19.10;101318.22;4533221;28;20105;-57
2023/04/05 00:35:13;;;;;;;1.50;1.30;;;;;;;21.86;19.18;101336.31;4531651;28;20539;-57
2023/04/05 00:37:24;;;;;;;1.23;1.13;;;;;;;21.85;19.42;101340.38;4529241;28;20033;-57
2023/04/05 00:39:35;;;;;;;1.30;1.20;;;;;;;21.87;19.61;101349.47;4531298;28;20096;-58
2023/04/05 00:41:45;;;;;;;1.70;1.20;;;;;;;21.87;19.42;101340.88;4496466;28;20268;-57
2023/04/05 00:43:56;;;;;;;1.30;1.20;;;;;;;21.86;19.19;101339.19;4531815;28;20494;-57
2023/04/05 00:46:07;;;;;;;1.20;1.10;;;;;;;21.87;19.32;101343.75;4531686;28;20036;-58
2023/04/05 00:48:17;;;;;;;1.75;1.42;;;;;;;21.87;19.34;101337.13;4533571;28;20038;-57
2023/04/05 00:50:31;;;;;;;1.38;1.27;;;;;;;21.86;19.13;101335.47;4529857;28;20046;-57
2023/04/05 00:52:42;;;;;;;1.50;1.40;;;;;;;21.84;19.47;101332.97;4531006;28;20028;-58
2023/04/05 00:54:53;;;;;;;1.27;1.17;;;;;;;21.83;19.32;101330.44;4505252;28;20038;-57
2023/04/05 00:57:05;;;;;;;1.58;1.42;;;;;;;21.85;19.06;101333.81;4515909;28;20489;-57
2023/04/05 00:59:16;;;;;;;1.30;1.20;;;;;;;21.84;19.43;101327.22;4532937;28;20214;-57
2023/04/05 01:01:28;;;;;;;1.40;1.30;;;;;;;21.84;19.52;101337.84;4512595;28;20029;-57
2023/04/05 01:03:42;;;;;;;1.35;1.25;;;;;;;21.84;19.27;101335.84;4514049;28;20576;-56
2023/04/05 01:06:14;;;;;;;1.52;1.30;;;;;;;21.81;19.43;101332.84;4533497;28;21218;-58
2023/04/05 01:08:36;;;;;;;1.50;1.40;;;;;;;21.79;19.36;101329.47;4523839;28;20040;-58
2023/04/05 01:11:01;;;;;;;1.38;1.27;;;;;;;21.82;19.00;101335.34;4517051;28;21310;-57
2023/04/05 01:13:12;;;;;;;1.70;1.33;;;;;;;21.79;19.08;101330.31;4523823;28;20084;-57
2023/04/05 01:15:22;;;;;;;1.30;1.20;;;;;;;21.81;19.19;101339.44;4531832;28;20041;-57
2023/04/05 01:17:37;;;;;;;1.42;1.30;;;;;;;21.69;19.59;101313.50;4533003;28;20037;-57
2023/04/05 01:19:52;;;;;;;1.85;1.20;;;;;;;21.77;19.34;101324.09;4531655;28;20099;-57
2023/04/05 01:22:30;;;;;;;1.50;1.40;;;;;;;21.83;19.87;101328.41;4532671;28;20642;-57
2023/04/05 01:25:09;;;;;;;1.55;1.20;;;;;;;21.81;20.06;101327.94;4528763;28;20871;-57
2023/04/05 01:27:30;;;;;;;1.85;1.50;;;;;;;21.79;19.68;101315.94;4530634;28;20045;-58
2023/04/05 01:30:17;;;;;;;1.42;1.33;;;;;;;21.81;19.74;101313.56;4530684;28;20917;-57
2023/04/05 01:32:58;;;;;;;1.50;1.40;;;;;;;21.80;19.58;101313.94;4533424;28;20038;-57
2023/04/05 01:35:23;;;;;;;1.50;1.30;;;;;;;21.80;19.14;101320.50;4524231;28;20668;-57
2023/04/05 01:37:37;;;;;;;1.50;1.40;;;;;;;21.77;19.50;101315.47;4534284;28;20056;-57
2023/04/05 01:39:49;;;;;;;1.92;1.60;;;;;;;21.64;19.54;101295.69;4521671;28;20044;-57
2023/04/05 01:42:01;;;;;;;1.67;1.58;;;;;;;21.75;19.87;101315.00;4536027;28;20108;-57
2023/04/05 01:44:11;;;;;;;1.40;1.30;;;;;;;21.72;19.44;101307.03;4535224;28;20036;-57
2023/04/05 01:46:22;;;;;;;1.92;1.50;;;;;;;21.77;19.49;101320.38;4518851;28;20134;-57
2023/04/05 01:48:32;;;;;;;1.42;1.33;;;;;;;21.76;19.75;101319.53;4537790;28;20771;-56
2023/04/05 01:50:44;;;;;;;1.40;1.30;;;;;;;21.76;19.34;101310.06;4509951;28;20136;-57
2023/04/05 01:52:55;;;;;;;2.15;1.55;;;;;;;21.74;19.50;101303.84;4533963;28;20139;-57
2023/04/05 01:55:05;;;;;;;1.60;1.50;;;;;;;21.76;19.45;101302.31;4534578;28;20025;-57
2023/04/05 01:57:16;;;;;;;1.60;1.50;;;;;;;21.73;19.42;101296.41;4535015;28;20203;-57
2023/04/05 01:59:26;;;;;;;1.63;1.40;;;;;;;21.73;19.80;101294.38;4531703;28;20044;-57
2023/04/05 02:01:37;;;;;;;1.63;1.52;;;;;;;21.74;19.61;101298.91;4535591;28;20096;-57
2023/04/05 02:03:47;;;;;;;1.50;1.40;;;;;;;21.73;19.51;101294.38;4494387;28;20574;-56
2023/04/05 02:05:58;;;;;;;1.45;1.33;;;;;;;21.74;19.40;101289.47;4533484;28;20050;-57
2023/04/05 02:08:08;;;;;;;1.45;1.30;;;;;;;21.72;19.76;101286.94;4534068;28;20025;-56
2023/04/05 02:10:19;;;;;;;1.38;1.27;;;;;;;21.68;19.46;101283.09;4536009;28;20041;-57
2023/04/05 02:12:30;;;;;;;1.75;1.33;;;;;;;21.72;19.54;101277.50;4517116;28;20611;-57
2023/04/05 02:14:40;;;;;;;1.45;1.25;;;;;;;21.70;19.67;101280.72;4521222;28;20017;-56
2023/04/05 02:16:54;;;;;;;1.10;1.00;;;;;;;21.71;19.58;101275.78;4533947;28;20510;-57
2023/04/05 02:19:05;;;;;;;1.33;1.23;;;;;;;21.68;19.72;101271.63;4533938;28;20148;-57
2023/04/05 02:21:16;;;;;;;1.20;1.10;;;;;;;21.67;19.65;101275.69;4534331;28;20037;-57
2023/04/05 02:23:29;;;;;;;1.30;1.20;;;;;;;21.70;19.50;101269.22;4534154;28;20020;-57
2023/04/05 02:25:39;;;;;;;1.30;1.20;;;;;;;21.64;19.22;101267.78;4536657;28;20574;-57
2023/04/05 02:27:50;;;;;;;1.40;1.30;;;;;;;21.69;19.51;101273.28;4535897;28;20099;-58
2023/04/05 02:30:00;;;;;;;1.45;1.35;;;;;;;21.70;19.46;101286.47;4533349;28;20132;-57
2023/04/05 02:32:11;;;;;;;1.50;1.40;;;;;;;21.68;19.48;101288.84;4518546;28;20173;-57
2023/04/05 02:34:23;;;;;;;1.50;1.40;;;;;;;21.70;19.61;101283.59;4534398;28;20039;-57
2023/04/05 02:36:35;;;;;;;1.40;1.30;;;;;;;21.69;19.74;101281.91;4536177;28;20170;-57
2023/04/05 02:38:46;;;;;;;1.50;1.40;;;;;;;21.70;19.89;101279.88;4533780;28;20033;-57
2023/04/05 02:40:56;;;;;;;1.40;1.30;;;;;;;21.67;19.93;101275.69;4531723;28;20422;-57
2023/04/05 02:43:07;;;;;;;1.50;1.40;;;;;;;21.63;20.10;101273.88;4535330;28;20080;-56
2023/04/05 02:45:18;;;;;;;1.35;1.25;;;;;;;21.66;20.13;101278.94;4525582;28;20063;-57
2023/04/05 02:47:28;;;;;;;1.67;1.30;;;;;;;21.67;20.54;101272.81;4515340;28;20147;-57
2023/04/05 02:49:42;;;;;;;1.35;1.25;;;;;;;21.66;20.47;101267.44;4530573;28;20276;-56
2023/04/05 02:51:54;;;;;;;1.40;1.30;;;;;;;21.66;20.20;101271.13;4531407;28;20029;-57
2023/04/05 02:54:05;;;;;;;1.33;1.20;;;;;;;21.67;20.55;101274.84;4517002;28;20071;-56
2023/04/05 02:56:18;;;;;;;1.83;1.38;;;;;;;21.65;20.18;101272.34;4526841;28;20037;-57
2023/04/05 02:58:31;;;;;;;1.38;1.27;;;;;;;21.66;20.43;101281.81;4514224;28;20045;-56
2023/04/05 03:00:49;;;;;;;1.20;1.10;;;;;;;21.61;20.47;101270.53;4507833;28;20033;-57
2023/04/05 03:03:02;;;;;;;1.38;1.27;;;;;;;21.65;20.22;101277.22;4501468;28;20897;-57
2023/04/05 03:05:12;;;;;;;1.50;1.30;;;;;;;21.61;20.68;101277.09;4530766;28;20136;-58
2023/04/05 03:07:24;;;;;;;1.42;1.33;;;;;;;21.60;20.27;101275.44;4534705;28;20395;-55
2023/04/05 03:09:37;;;;;;;1.48;1.38;;;;;;;21.62;20.69;101270.19;4517620;28;20033;-57
2023/04/05 03:11:51;;;;;;;1.30;1.20;;;;;;;21.61;20.54;101265.59;4525398;28;20033;-57
2023/04/05 03:14:01;;;;;;;1.40;1.30;;;;;;;21.62;20.29;101264.44;4516696;28;20034;-57
2023/04/05 03:16:27;;;;;;;1.52;1.40;;;;;;;21.61;20.22;101259.88;4534759;28;20037;-56
2023/04/05 03:18:38;;;;;;;1.88;1.30;;;;;;;21.59;20.22;101262.28;4534830;28;20072;-57
2023/04/05 03:20:58;;;;;;;1.50;1.40;;;;;;;21.55;20.59;101255.56;4514774;28;20013;-57
2023/04/05 03:23:09;;;;;;;1.35;1.25;;;;;;;21.60;20.43;101260.22;4516982;28;20041;-57
2023/04/05 03:25:20;;;;;;;1.40;1.30;;;;;;;21.56;20.23;101257.25;4491920;28;20040;-57
2023/04/05 03:27:32;;;;;;;1.30;1.20;;;;;;;21.61;20.53;101270.53;4524570;28;20029;-57
2023/04/05 03:29:47;;;;;;;1.50;1.40;;;;;;;21.54;20.16;101253.91;4513442;28;20091;-57
2023/04/05 03:32:01;;;;;;;1.40;1.30;;;;;;;21.60;20.10;101263.94;4516334;28;20172;-57
2023/04/05 03:34:11;;;;;;;1.58;1.40;;;;;;;21.52;20.10;101252.56;4534909;28;20021;-58
2023/04/05 03:36:40;;;;;;;1.42;1.33;;;;;;;21.59;20.31;101259.41;4531433;28;20052;-56
2023/04/05 03:38:54;;;;;;;1.40;1.30;;;;;;;21.55;20.43;101255.56;4515929;28;20573;-57
2023/04/05 03:41:06;;;;;;;2.13;1.30;;;;;;;21.56;20.44;101253.53;4533967;28;20040;-57
2023/04/05 03:43:18;;;;;;;1.38;1.25;;;;;;;21.53;19.68;101246.44;4534181;28;20036;-57
2023/04/05 03:45:29;;;;;;;1.33;1.23;;;;;;;21.56;19.36;101248.63;4534909;28;20813;-57
2023/04/05 03:47:39;;;;;;;1.30;1.20;;;;;;;21.56;19.58;101253.53;4518472;28;20033;-56
2023/04/05 03:49:51;;;;;;;1.25;1.15;;;;;;;21.56;19.20;101254.38;4516625;28;20513;-56
2023/04/05 03:52:01;;;;;;;1.25;1.15;;;;;;;21.53;19.08;101252.19;4534243;28;20608;-57
2023/04/05 03:54:12;;;;;;;1.30;1.20;;;;;;;21.55;19.50;101252.69;4534849;28;20107;-57
2023/04/05 03:56:23;;;;;;;1.30;1.20;;;;;;;21.56;19.36;101251.50;4522079;28;20033;-56
2023/04/05 03:58:33;;;;;;;1.27;1.20;;;;;;;21.57;19.24;101253.19;4533469;28;20064;-57
2023/04/05 04:00:44;;;;;;;1.30;1.20;;;;;;;21.55;19.56;101244.06;4531293;28;20038;-57
2023/04/05 04:03:02;;;;;;;1.70;1.23;;;;;;;21.56;19.52;101250.66;4511865;28;20037;-56
2023/04/05 04:05:14;;;;;;;1.20;1.10;;;;;;;21.56;19.15;101248.63;4531236;28;20044;-58
2023/04/05 04:07:26;;;;;;;1.52;1.40;;;;;;;21.54;19.12;101244.44;4520542;28;21313;-57
2023/04/05 04:09:36;;;;;;;1.30;1.20;;;;;;;21.52;19.23;101244.78;4528301;28;20111;-57
2023/04/05 04:11:52;;;;;;;1.40;1.30;;;;;;;21.55;19.29;101241.19;4510042;28;20211;-57
2023/04/05 04:14:05;;;;;;;1.30;1.20;;;;;;;21.54;19.41;101244.44;4513008;28;20129;-57
2023/04/05 04:16:38;;;;;;;1.65;1.23;;;;;;;21.55;19.20;101249.81;4524900;28;20054;-57
2023/04/05 04:19:01;;;;;;;1.58;1.25;;;;;;;21.55;19.48;101244.06;4504173;28;20638;-57
2023/04/05 04:21:38;;;;;;;1.00;0.90;;;;;;;21.49;19.16;101233.16;4525832;28;20037;-57
2023/04/05 04:23:51;;;;;;;1.30;1.20;;;;;;;21.39;18.99;101222.19;4529415;28;20134;-56
2023/04/05 04:26:27;;;;;;;1.30;1.20;;;;;;;21.48;19.12;101234.38;4529681;28;20060;-57
2023/04/05 04:29:00;;;;;;;1.38;1.20;;;;;;;21.52;19.12;101239.03;4527270;28;20139;-57
2023/04/05 04:31:33;;;;;;;1.30;1.13;;;;;;;21.50;18.85;101238.56;4510348;28;20180;-56
2023/04/05 04:34:02;;;;;;;1.30;1.20;;;;;;;21.51;18.52;101237.38;4528994;28;20556;-56
2023/04/05 04:36:33;;;;;;;1.50;1.40;;;;;;;21.50;18.48;101241.44;4529638;28;20043;-57
2023/04/05 04:39:05;;;;;;;1.30;1.20;;;;;;;21.49;18.61;101239.75;4526853;28;20041;-58
2023/04/05 04:41:43;;;;;;;1.30;1.20;;;;;;;21.49;18.84;101239.75;4528362;28;20049;-57
2023/04/05 04:44:13;;;;;;;1.38;1.10;;;;;;;21.39;18.79;101220.13;4527041;28;20084;-57
2023/04/05 04:46:53;;;;;;;1.67;1.20;;;;;;;21.49;19.32;101245.50;4516559;28;20138;-57
2023/04/05 04:49:42;;;;;;;1.08;0.98;;;;;;;21.35;19.09;101219.19;4469457;28;20771;-57
2023/04/05 04:51:53;;;;;;;1.20;1.10;;;;;;;21.45;19.10;101233.06;4498673;28;20044;-56
2023/04/05 04:54:06;;;;;;;1.30;1.10;;;;;;;21.47;19.08;101229.84;4511692;28;20084;-56
2023/04/05 04:56:17;;;;;;;1.17;1.08;;;;;;;21.48;19.02;101237.25;4518924;28;20131;-57
2023/04/05 04:58:27;;;;;;;1.20;1.10;;;;;;;21.48;18.87;101237.25;4529271;28;20086;-57
2023/04/05 05:00:47;;;;;;;1.40;1.20;;;;;;;21.48;18.75;101238.09;4513012;28;20093;-56
2023/04/05 05:02:57;;;;;;;1.20;1.10;;;;;;;21.47;18.55;101235.59;4532418;28;20034;-57
2023/04/05 05:05:08;;;;;;;1.30;1.20;;;;;;;21.41;18.76;101232.09;4513493;28;20077;-56
2023/04/05 05:07:19;;;;;;;1.38;1.20;;;;;;;21.42;18.48;101233.75;4531050;28;20623;-57
2023/04/05 05:09:30;;;;;;;1.10;1.00;;;;;;;21.47;18.19;101244.19;4529963;28;20045;-57
2023/04/05 05:11:42;;;;;;;1.40;1.30;;;;;;;21.46;18.64;101251.13;4531453;28;20060;-57
2023/04/05 05:13:55;;;;;;;1.17;1.02;;;;;;;21.40;18.76;101236.19;4511985;28;20617;-57
2023/04/05 05:16:08;;;;;;;1.40;1.20;;;;;;;21.36;19.19;101226.59;4513740;28;20029;-58
2023/04/05 05:18:18;;;;;;;0.90;0.90;;;;;;;21.40;19.24;101244.78;4532457;28;20084;-58
2023/04/05 05:20:29;;;;;;;1.20;1.10;;;;;;;21.43;19.26;101246.94;4532063;28;20033;-58
2023/04/05 05:22:39;;;;;;;1.20;1.10;;;;;;;21.40;19.53;101244.78;4532652;28;20082;-58
2023/04/05 05:24:50;;;;;;;1.17;1.08;;;;;;;21.45;19.40;101258.91;4530617;28;20095;-58
2023/04/05 05:27:00;;;;;;;1.13;1.00;;;;;;;21.43;19.49;101252.69;4531011;28;20052;-59
2023/04/05 05:29:10;;;;;;;1.02;1.02;;;;;;;21.44;19.71;101254.34;4530931;28;20571;-58
2023/04/05 05:31:25;;;;;;;1.25;1.02;;;;;;;21.43;19.34;101255.56;4531783;28;20065;-58
2023/04/05 05:33:35;;;;;;;1.35;1.25;;;;;;;21.38;19.09;101241.44;4532062;28;20478;-57
2023/04/05 05:35:50;;;;;;;1.27;1.17;;;;;;;21.41;19.45;101245.59;4531327;28;20410;-58
2023/04/05 05:38:01;;;;;;;1.10;1.00;;;;;;;21.43;19.46;101252.69;4532607;28;20944;-58
2023/04/05 05:40:12;;;;;;;1.23;1.13;;;;;;;21.44;19.51;101254.34;4506377;28;20037;-58
2023/04/05 05:42:22;;;;;;;1.55;1.20;;;;;;;21.44;19.29;101253.50;4531246;28;20021;-57
2023/04/05 05:44:34;;;;;;;1.20;1.02;;;;;;;21.42;19.48;101255.91;4530390;28;20757;-58
2023/04/05 05:46:45;;;;;;;1.35;1.10;;;;;;;21.41;19.61;101252.19;4531689;28;20037;-58
2023/04/05 05:48:55;;;;;;;1.27;1.10;;;;;;;21.42;19.32;101253.88;4519489;28;20060;-58
2023/04/05 05:51:08;;;;;;;1.15;1.05;;;;;;;21.42;19.77;101251.00;4521728;28;20127;-58
2023/04/05 05:53:19;;;;;;;1.23;1.10;;;;;;;21.41;19.60;101252.19;4530780;28;20083;-58
2023/04/05 05:55:29;;;;;;;1.40;1.30;;;;;;;21.25;19.88;101227.44;4532284;28;20813;-58
2023/04/05 05:57:40;;;;;;;1.40;1.10;;;;;;;21.40;19.58;101249.69;4533581;28;20036;-58
2023/04/05 05:59:50;;;;;;;1.50;1.30;;;;;;;21.41;19.63;101252.19;4532123;28;20466;-57
2023/04/05 06:02:01;;;;;;;1.20;1.10;;;;;;;21.38;19.83;101255.78;4529361;28;20748;-58
2023/04/05 06:04:15;;;;;;;1.40;1.30;;;;;;;21.39;19.85;101245.16;4531816;28;20041;-56
2023/04/05 06:06:25;;;;;;;1.40;1.30;;;;;;;21.41;19.47;101249.31;4531681;28;20044;-58
2023/04/05 06:08:37;;;;;;;1.30;1.20;;;;;;;21.41;19.45;101249.31;4528954;28;20640;-58
2023/04/05 06:10:48;;;;;;;1.30;1.20;;;;;;;21.41;19.74;101246.47;4530362;28;20041;-57
2023/04/05 06:12:59;;;;;;;1.25;1.15;;;;;;;21.39;19.90;101239.41;4533391;28;20481;-57
2023/04/05 06:15:10;;;;;;;1.40;1.30;;;;;;;21.43;19.85;101252.69;4530897;28;20033;-57
2023/04/05 06:17:20;;;;;;;1.33;1.23;;;;;;;21.43;20.37;101244.06;4528489;28;20034;-58
2023/04/05 06:19:31;;;;;;;1.30;1.20;;;;;;;21.44;20.74;101247.75;4531405;28;20028;-58
2023/04/05 06:21:41;;;;;;;1.33;1.23;;;;;;;21.42;21.17;101251.00;4520497;28;20033;-56
2023/04/05 06:23:52;;;;;;;2.17;1.40;;;;;;;21.36;20.91;101238.06;4534179;28;20036;-56
2023/04/05 06:26:03;;;;;;;1.63;1.40;;;;;;;21.29;21.09;101222.63;4516625;28;20571;-56
2023/04/05 06:28:13;;;;;;;1.27;1.17;;;;;;;21.40;21.05;101247.66;4522330;28;20030;-56
2023/04/05 06:30:24;;;;;;;1.48;1.30;;;;;;;21.43;20.92;101255.56;4535314;28;20037;-57
2023/04/05 06:32:34;;;;;;;1.38;1.27;;;;;;;21.41;20.92;101248.47;4534162;28;20107;-57
2023/04/05 06:34:47;;;;;;;1.50;1.40;;;;;;;21.35;20.56;101233.53;4534566;28;20104;-57
2023/04/05 06:36:58;;;;;;;1.27;1.17;;;;;;;21.37;20.39;101241.78;4532519;28;20099;-57
2023/04/05 06:39:08;;;;;;;1.35;1.20;;;;;;;21.39;20.90;101251.72;4535598;28;20063;-57
2023/04/05 06:41:19;;;;;;;1.95;1.40;;;;;;;21.38;20.55;101247.19;4532208;28;20040;-56
2023/04/05 06:43:30;;;;;;;1.40;1.30;;;;;;;21.38;20.98;101252.06;4534220;28;20091;-57
2023/04/05 06:45:41;;;;;;;1.30;1.20;;;;;;;21.39;21.04;101248.03;4532940;28;20065;-57
2023/04/05 06:47:52;;;;;;;1.33;1.23;;;;;;;21.37;21.29;101238.91;4534044;28;20032;-57
2023/04/05 06:50:05;;;;;;;1.30;1.20;;;;;;;21.35;21.42;101233.53;4532119;28;20111;-57
2023/04/05 06:52:15;;;;;;;1.35;1.25;;;;;;;21.35;21.26;101242.16;4531335;28;20076;-57
2023/04/05 06:54:26;;;;;;;1.73;1.20;;;;;;;21.34;21.07;101243.34;4533932;28;20390;-57
2023/04/05 06:56:37;;;;;;;1.60;1.30;;;;;;;21.36;21.71;101246.69;4533908;28;20032;-57
2023/04/05 06:58:49;;;;;;;1.20;1.10;;;;;;;21.37;21.59;101251.25;4534569;28;20040;-59
2023/04/05 07:01:00;;;;;;;1.35;1.23;;;;;;;21.37;21.88;101254.13;4521620;28;20162;-57
2023/04/05 07:03:10;;;;;;;1.77;1.45;;;;;;;21.36;21.11;101248.75;4533426;28;20099;-57
2023/04/05 07:05:21;;;;;;;1.35;1.20;;;;;;;21.35;21.17;101250.75;4480733;28;20109;-57
2023/04/05 07:07:32;;;;;;;1.45;1.35;;;;;;;21.38;20.99;101252.91;4530520;28;20096;-57
2023/04/05 07:09:42;;;;;;;1.33;1.20;;;;;;;21.38;21.16;101254.94;4514846;28;20068;-57
2023/04/05 07:11:53;;;;;;;1.65;1.40;;;;;;;21.32;21.58;101240.00;4515437;28;20446;-57
2023/04/05 07:14:03;;;;;;;1.70;1.60;;;;;;;21.37;21.71;101247.53;4532385;28;20021;-57
2023/04/05 07:16:14;;;;;;;1.63;1.40;;;;;;;21.37;21.25;101233.19;4531445;28;20050;-57
2023/04/05 07:18:25;;;;;;;1.63;1.50;;;;;;;21.37;21.61;101236.91;4530356;28;20129;-57
2023/04/05 07:20:35;;;;;;;1.67;1.55;;;;;;;21.37;21.74;101236.91;4532722;28;20125;-57
2023/04/05 07:22:46;;;;;;;1.48;1.38;;;;;;;21.39;21.42;101240.22;4532068;28;20033;-59
2023/04/05 07:24:56;;;;;;;1.80;1.50;;;;;;;21.39;21.53;101222.19;4531801;28;20052;-58
2023/04/05 07:27:06;;;;;;;1.98;1.60;;;;;;;21.39;21.90;101227.91;4530907;28;20040;-60
2023/04/05 07:29:17;;;;;;;2.75;1.50;;;;;;;21.40;21.76;101223.84;4532264;28;20033;-59
2023/04/05 07:31:28;;;;;;;1.50;1.40;;;;;;;21.40;21.96;101224.69;4529173;28;20024;-58
2023/04/05 07:33:38;;;;;;;2.22;1.58;;;;;;;21.41;22.21;101229.22;4529962;28;20060;-59
2023/04/05 07:35:53;;;;;;;1.48;1.10;;;;;;;21.41;21.82;101220.59;4521501;28;20112;-59
2023/04/05 07:38:03;;;;;;;1.42;1.30;;;;;;;21.41;21.83;101223.47;4533045;28;20601;-56
2023/04/05 07:40:14;;;;;;;1.30;1.20;;;;;;;21.39;22.01;101220.13;4531026;28;20408;-55
2023/04/05 07:42:26;;;;;;;1.30;1.20;;;;;;;21.40;21.65;101215.22;4531939;28;20092;-55
2023/04/05 07:44:37;;;;;;;1.52;1.20;;;;;;;21.44;21.75;101217.03;4512024;28;20025;-56
2023/04/05 07:46:47;;;;;;;1.50;1.20;;;;;;;21.42;22.06;101216.53;4530864;28;20041;-55
2023/04/05 07:48:58;;;;;;;1.38;1.00;;;;;;;21.43;21.76;101218.22;4521238;28;20139;-56
2023/04/05 07:51:10;;;;;;;1.20;1.10;;;;;;;21.35;21.83;101198.22;4532222;28;20083;-58
2023/04/05 07:53:20;;;;;;;1.63;1.13;;;;;;;21.42;21.75;101216.53;4498172;28;20026;-56
2023/04/05 07:55:31;;;;;;;0.95;0.95;;;;;;;21.40;21.65;101212.34;4513949;28;20034;-55
2023/04/05 07:57:41;;;;;;;1.20;1.10;;;;;;;21.41;21.55;101214.03;4527743;28;20029;-56
2023/04/05 07:59:53;;;;;;;1.55;1.17;;;;;;;21.30;22.01;101196.44;4529389;28;20041;-56
2023/04/05 08:02:04;;;;;;;1.63;1.10;;;;;;;21.42;21.65;101213.66;4531724;28;20938;-56
2023/04/05 08:04:14;;;;;;;1.27;1.00;;;;;;;21.49;21.66;101215.94;4532094;28;20032;-57
2023/04/05 08:06:26;;;;;;;1.98;1.20;;;;;;;21.46;21.25;101210.91;4533273;28;20126;-57
2023/04/05 08:08:36;;;;;;;1.38;1.10;;;;;;;21.43;21.91;101212.47;4532866;28;20032;-56
2023/04/05 08:10:47;;;;;;;1.40;1.15;;;;;;;21.45;21.69;101215.00;4534864;28;20033;-56
2023/04/05 08:12:57;;;;;;;0.90;0.90;;;;;;;21.49;21.37;101218.81;4512724;28;20140;-56
2023/04/05 08:15:08;;;;;;;1.23;1.00;;;;;;;21.47;21.28;101216.28;4532133;28;20987;-57
2023/04/05 08:17:19;;;;;;;1.20;1.10;;;;;;;21.49;21.37;101222.53;4515273;28;20052;-56
2023/04/05 08:19:29;;;;;;;1.25;1.02;;;;;;;21.47;21.52;101218.34;4533313;28;20739;-56
2023/04/05 08:21:40;;;;;;;1.23;1.10;;;;;;;21.48;21.33;101226.59;4530796;28;20025;-57
2023/04/05 08:23:50;;;;;;;1.33;1.20;;;;;;;21.46;21.42;101228.16;4531982;28;20468;-57
2023/04/05 08:26:01;;;;;;;1.48;1.38;;;;;;;21.45;21.39;101227.34;4531115;28;20045;-57
2023/04/05 08:28:11;;;;;;;1.15;1.05;;;;;;;21.38;21.71;101217.59;4529341;28;20040;-57
2023/04/05 08:30:22;;;;;;;1.10;1.00;;;;;;;21.29;20.73;101197.66;4533102;28;20072;-56
2023/04/05 08:32:33;;;;;;;1.25;1.15;;;;;;;21.38;20.36;101218.47;4534375;28;20033;-57
2023/04/05 08:34:44;;;;;;;1.10;1.00;;;;;;;21.44;20.57;101217.03;4532452;28;21081;-56
2023/04/05 08:36:58;;;;;;;1.38;1.00;;;;;;;21.44;20.09;101214.16;4530218;28;20060;-56
2023/04/05 08:39:09;;;;;;;1.67;1.10;;;;;;;21.43;19.58;101212.47;4531386;28;20033;-57
2023/04/05 08:41:25;;;;;;;1.00;1.00;;;;;;;21.44;19.77;101217.03;4531685;28;20041;-57
2023/04/05 08:43:50;;;;;;;1.25;1.08;;;;;;;21.43;19.86;101211.63;4531684;28;20052;-57
2023/04/05 08:46:02;;;;;;;1.77;1.10;;;;;;;21.41;19.59;101202.53;4522594;28;20041;-57
2023/04/05 08:48:13;;;;;;;1.20;1.10;;;;;;;21.44;19.28;101214.16;4529897;28;20761;-58
2023/04/05 08:50:24;;;;;;;1.45;1.20;;;;;;;21.45;19.75;101212.13;4532655;28;20104;-57
2023/04/05 08:52:37;;;;;;;1.42;1.00;;;;;;;21.40;19.56;101198.00;4531516;28;20041;-57
2023/04/05 08:54:47;;;;;;;1.65;1.10;;;;;;;21.45;19.63;101201.47;4533310;28;20037;-57
2023/04/05 08:56:58;;;;;;;1.38;1.15;;;;;;;21.45;19.71;101204.34;4530193;28;20029;-57
2023/04/05 08:59:10;;;;;;;1.42;1.15;;;;;;;21.46;19.96;101211.75;4530020;28;20033;-57
2023/04/05 09:01:21;;;;;;;1.35;1.10;;;;;;;21.47;19.84;101204.00;4531402;28;20038;-57
2023/04/05 09:03:36;;;;;;;1.15;1.05;;;;;;;21.47;20.30;101206.88;4531428;28;20033;-57
2023/04/05 09:05:51;;;;;;;1.02;0.93;;;;;;;21.47;19.95;101201.94;4532122;28;20071;-56
2023/04/05 09:08:02;;;;;;;1.25;1.10;;;;;;;21.50;20.34;101215.56;4531443;28;20037;-57
2023/04/05 09:10:13;;;;;;;1.00;1.00;;;;;;;21.37;20.38;101190.94;4530107;28;20394;-57
2023/04/05 09:12:25;;;;;;;1.20;1.10;;;;;;;21.53;19.97;101214.84;4531902;28;20057;-58
2023/04/05 09:14:37;;;;;;;1.27;1.15;;;;;;;21.52;20.07;101204.56;4530732;28;20029;-57
2023/04/05 09:16:47;;;;;;;1.27;1.10;;;;;;;21.54;19.41;101196.44;4531768;28;21018;-57
2023/04/05 09:18:58;;;;;;;1.48;1.15;;;;;;;21.56;19.66;101194.06;4529448;28;20297;-57
2023/04/05 09:21:09;;;;;;;1.23;1.13;;;;;;;21.54;20.02;101199.31;4532419;28;20437;-58
2023/04/05 09:23:20;;;;;;;1.30;1.20;;;;;;;21.56;19.64;101199.81;4531055;28;20025;-57
2023/04/05 09:25:30;;;;;;;1.83;1.02;;;;;;;21.59;19.96;101204.81;4532901;28;20049;-56
2023/04/05 09:28:11;;;;;;;1.20;1.10;;;;;;;21.59;20.09;101193.34;4515410;28;20064;-57
2023/04/05 09:30:22;;;;;;;1.10;1.00;;;;;;;21.62;19.76;101191.75;4529808;28;20045;-56
2023/04/05 09:32:32;;;;;;;1.08;1.00;;;;;;;21.60;19.22;101188.41;4532444;28;20076;-57
2023/04/05 09:34:47;;;;;;;1.35;1.10;;;;;;;21.65;19.50;101191.03;4514761;28;20037;-56
2023/04/05 09:37:16;;;;;;;1.20;1.00;;;;;;;21.65;19.35;101191.88;4530127;28;20749;-58
2023/04/05 09:39:31;;;;;;;1.55;1.23;;;;;;;21.68;19.86;101196.91;4533166;28;20128;-56
2023/04/05 09:41:42;;;;;;;1.77;1.30;;;;;;;21.67;19.91;101189.50;4531086;28;20492;-57
2023/04/05 09:43:52;;;;;;;1.27;1.10;;;;;;;21.66;19.48;101182.06;4534482;28;20547;-56
2023/04/05 09:46:02;;;;;;;1.10;1.00;;;;;;;21.67;19.21;101189.50;4532286;28;20364;-56
2023/04/05 09:48:13;;;;;;;1.30;1.20;;;;;;;21.66;19.08;101182.06;4521310;28;20030;-56
2023/04/05 09:50:24;;;;;;;1.20;1.10;;;;;;;21.62;19.05;101177.41;4516173;28;20034;-56
2023/04/05 09:52:36;;;;;;;1.10;1.00;;;;;;;21.68;19.47;101188.28;4521260;28;20080;-56
2023/04/05 09:54:47;;;;;;;1.27;1.17;;;;;;;21.63;19.25;101177.03;4533521;28;20033;-56
2023/04/05 09:56:58;;;;;;;1.27;1.05;;;;;;;21.67;19.38;101183.75;4534168;28;20029;-56
2023/04/05 09:59:11;;;;;;;1.15;1.00;;;;;;;21.64;19.77;101180.75;4532065;28;20545;-55
2023/04/05 10:01:25;;;;;;;1.10;1.00;;;;;;;21.55;19.83;101160.75;4533151;28;20697;-56
2023/04/05 10:03:45;;;;;;;1.20;1.10;;;;;;;21.66;19.45;101176.31;4534837;28;20064;-57
2023/04/05 10:05:56;;;;;;;1.35;1.10;;;;;;;21.67;18.78;101175.13;4532024;28;20025;-56
2023/04/05 10:08:07;;;;;;;1.77;1.27;;;;;;;21.67;18.94;101177.16;4501353;28;20042;-57
2023/04/05 10:10:18;;;;;;;2.13;1.17;;;;;;;21.67;18.54;101180.03;4515884;28;20037;-56
2023/04/05 10:12:31;;;;;;;1.20;1.10;;;;;;;21.66;18.80;101179.19;4535497;28;20036;-57
2023/04/05 10:14:41;;;;;;;1.10;1.00;;;;;;;21.69;19.29;101177.66;4533276;28;20036;-57
2023/04/05 10:17:03;;;;;;;1.30;1.10;;;;;;;21.74;18.99;101177.41;4533596;28;20489;-56
2023/04/05 10:19:28;;;;;;;1.00;0.85;;;;;;;21.78;19.09;101178.38;4534570;28;20033;-56